Quick Links (Output Below):   Max & Min Temps   /   Climate Reports   /   Zone Forecasts
River Forecasts   /   Forestry Forecasts   /   Aviation Forecasts   /   Radars   /   Features

Terminal Aerodrome Forecast (Arkadelphia)

Pick a Site:
Arkadelphia | El Dorado | Fayetteville | Fort Smith | Harrison | Highfill | Hot Springs | Jonesboro
Little Rock | Monticello | Mountain Home | Pine Bluff | Texarkana
 Forecast 

KADF 012322Z 0200/0224 27005KT P6SM VCSH SCT040 BKN100 BKN250
     FM020200 VRB03KT P6SM SCT100 BKN250
     FM021400 15006KT P6SM FEW035 BKN250=


 Latest METARs (Observations) 
How to Decode METARs
03Z KADF 020256Z AUTO 00000KT 10SM CLR 25/23 A3003 RMK AO2 53010
         T02500233 SLP179 $
         
02Z KADF 020156Z AUTO 00000KT 10SM CLR 26/24 A3002 RMK AO2 T02550244
         SLP176 $
         
01Z KADF 020056Z AUTO 00000KT 10SM CLR 27/26 A3000 RMK AO2 T02660255
         SLP172 $
         
00Z KADF 012356Z AUTO 34003KT 10SM CLR 27/25 A3000 RMK AO2 56011 60102
         T02720250 10361 20238 SLP171 $
         
***** Today's Observations (Above) *****


22Z KADF 012156Z AUTO 00000KT 10SM -RA SCT002 25/23 A3002 RMK AO2
         T02500227 TSB01E34 P0081 WSHFT 2107 SLP177 $
         
21Z KADF 012056Z AUTO 25010KT +RA SCT002 BKN050 27/22 A3003 RMK AO2
         55004 60019 T02720222 BKN V SCT RAB46 P0021 SLP181 $
         
20Z KADF 011956Z AUTO 07004KT 10SM CLR 34/22 A3000 RMK AO2 T03440216
         SLP172
         
19Z KADF 011856Z AUTO 00000KT 10SM CLR 36/20 A3002 RMK AO2 T03550200
         SLP178
         
18Z KADF 011756Z AUTO VRB04KT 10SM CLR 35/21 A3004 RMK AO2 58002
         T03500205 10350 20211 SLP183
         
17Z KADF 011656Z AUTO VRB06KT 10SM CLR 34/22 A3005 RMK AO2 T03380216
         SLP188
         
***** Yesterday's Observations (Above) *****


Back to Main Page
http://www.srh.noaa.gov/lzk/qfcst.php

USA.gov is the U.S. government's official web portal to all federal, state and local government web resources and services.